Time;durP1;ratioP1;P1;durP2;ratioP2;P2;SDS_P1;SDS_P2;PMS_P1;PMS_P2;Temp;Humidity;BMP_temperature;BMP_pressure;BME280_temperature;BME280_humidity;BME280_pressure;Samples;Min_cycle;Max_cycle;Signal;HPM_P1;HPM_P2
2022/04/17 00:00:00;;;;;;;2.33;2.08;;;19.60;41.80;;;;;;5039001;28;20202;-72
2022/04/17 00:02:27;;;;;;;2.47;1.90;;;19.60;41.90;;;;;;5057035;28;20633;-71
2022/04/17 00:04:54;;;;;;;2.60;2.20;;;19.60;41.70;;;;;;5056792;28;20217;-71
2022/04/17 00:07:21;;;;;;;2.22;2.03;;;19.60;42.00;;;;;;5039399;28;20211;-71
2022/04/17 00:09:48;;;;;;;2.30;2.10;;;19.60;42.20;;;;;;5039745;28;20263;-71
2022/04/17 00:12:16;;;;;;;2.35;2.15;;;19.50;42.10;;;;;;5039114;28;20199;-71
2022/04/17 00:14:43;;;;;;;2.10;2.00;;;19.50;42.00;;;;;;5038830;28;20223;-71
2022/04/17 00:17:13;;;;;;;2.42;2.20;;;19.40;41.80;;;;;;5055046;28;20290;-71
2022/04/17 00:19:40;;;;;;;2.20;2.00;;;19.50;42.00;;;;;;5038126;28;20218;-71
2022/04/17 00:22:07;;;;;;;2.38;2.17;;;19.50;42.20;;;;;;5037990;28;20191;-71
2022/04/17 00:24:34;;;;;;;2.28;2.08;;;19.40;42.00;;;;;;5037824;28;20231;-71
2022/04/17 00:27:01;;;;;;;2.50;2.30;;;19.40;42.00;;;;;;5054331;28;20213;-71
2022/04/17 00:29:28;;;;;;;2.20;2.10;;;19.40;42.00;;;;;;5038018;28;20187;-72
2022/04/17 00:31:56;;;;;;;1.75;1.65;;;19.40;42.10;;;;;;5037797;28;20196;-71
2022/04/17 00:34:25;;;;;;;4.90;2.35;;;19.30;42.00;;;;;;5037382;28;20296;-72
2022/04/17 00:36:52;;;;;;;2.45;2.25;;;19.30;42.00;;;;;;5055127;28;20195;-71
2022/04/17 00:39:19;;;;;;;2.40;2.20;;;19.30;42.00;;;;;;5036836;28;20593;-71
2022/04/17 00:41:47;;;;;;;2.47;2.30;;;19.30;42.10;;;;;;5054936;28;20233;-71
2022/04/17 00:44:15;;;;;;;2.00;1.90;;;19.30;42.10;;;;;;5036948;28;20712;-71
2022/04/17 00:46:42;;;;;;;2.45;2.25;;;19.20;42.10;;;;;;5036973;28;20241;-71
2022/04/17 00:49:08;;;;;;;2.20;2.10;;;19.30;42.00;;;;;;5036820;28;20290;-71
2022/04/17 00:51:37;;;;;;;2.85;2.15;;;19.20;42.00;;;;;;5036362;28;20384;-71
2022/04/17 00:54:05;;;;;;;2.22;2.03;;;19.20;41.90;;;;;;5054379;28;20261;-71
2022/04/17 00:56:32;;;;;;;2.40;2.20;;;19.20;42.10;;;;;;5036511;28;20195;-71
2022/04/17 00:58:59;;;;;;;2.30;2.10;;;19.20;41.90;;;;;;5053123;28;20585;-72
2022/04/17 01:01:26;;;;;;;2.13;2.03;;;19.10;41.80;;;;;;5036763;28;20213;-71
2022/04/17 01:03:53;;;;;;;3.10;2.15;;;19.10;42.10;;;;;;5036693;28;20219;-71
2022/04/17 01:06:20;;;;;;;2.40;2.20;;;19.10;41.90;;;;;;5053194;28;20299;-71
2022/04/17 01:08:49;;;;;;;2.88;2.00;;;19.10;42.10;;;;;;5054091;28;20186;-71
2022/04/17 01:11:17;;;;;;;2.03;1.90;;;19.10;41.90;;;;;;5054379;28;20708;-71
2022/04/17 01:13:44;;;;;;;2.20;2.10;;;19.10;41.90;;;;;;5054124;28;20207;-72
2022/04/17 01:16:11;;;;;;;2.40;2.20;;;19.10;42.00;;;;;;5054471;28;20278;-71
2022/04/17 01:18:55;;;;;;;2.17;2.08;;;19.00;42.00;;;;;;5036204;28;20234;-71
2022/04/17 01:21:23;;;;;;;2.40;2.20;;;19.00;42.00;;;;;;5054204;28;20214;-71
2022/04/17 01:29:20;;;;;;;2.50;2.15;;;19.00;42.10;;;;;;5036017;28;20192;-71
2022/04/17 01:31:47;;;;;;;2.53;2.30;;;18.90;42.20;;;;;;5054022;28;20596;-71
2022/04/17 01:34:15;;;;;;;2.00;1.90;;;18.90;42.00;;;;;;5052920;28;20230;-71
2022/04/17 01:36:44;;;;;;;2.55;2.35;;;18.90;42.10;;;;;;5053770;28;20661;-71
2022/04/17 01:39:11;;;;;;;1.95;1.85;;;18.80;42.00;;;;;;5036360;28;20222;-71
2022/04/17 01:41:38;;;;;;;2.28;2.08;;;18.80;42.00;;;;;;5052697;28;20310;-71
2022/04/17 01:44:06;;;;;;;2.17;2.08;;;18.80;42.00;;;;;;5035621;28;20221;-71
2022/04/17 01:46:33;;;;;;;3.53;2.10;;;18.80;42.10;;;;;;5035995;28;20665;-71
2022/04/17 01:49:00;;;;;;;2.15;2.05;;;18.80;42.10;;;;;;5035594;28;20195;-71
2022/04/17 01:51:27;;;;;;;1.92;1.83;;;18.80;42.30;;;;;;5035531;28;20199;-71
2022/04/17 01:53:55;;;;;;;2.25;2.00;;;18.80;42.20;;;;;;5035391;28;20225;-71
2022/04/17 01:56:22;;;;;;;2.20;2.00;;;18.80;42.20;;;;;;5053417;28;20218;-71
2022/04/17 01:58:49;;;;;;;2.33;2.13;;;18.70;42.10;;;;;;5036304;28;20215;-71
2022/04/17 02:01:16;;;;;;;2.15;2.00;;;18.70;42.20;;;;;;5035262;28;20664;-71
2022/04/17 02:03:43;;;;;;;2.15;1.95;;;18.70;42.10;;;;;;5034720;28;20750;-71
2022/04/17 02:06:10;;;;;;;2.30;2.00;;;18.60;42.10;;;;;;5053218;28;20199;-71
2022/04/17 02:08:37;;;;;;;2.13;2.03;;;18.70;42.20;;;;;;5052080;28;20199;-71
2022/04/17 02:11:06;;;;;;;2.10;2.00;;;18.60;42.20;;;;;;5035460;28;20290;-71
2022/04/17 02:13:34;;;;;;;2.38;2.17;;;18.60;42.10;;;;;;5035192;28;20223;-72
2022/04/17 02:16:01;;;;;;;2.10;2.00;;;18.60;42.10;;;;;;5035322;28;20203;-71
2022/04/17 02:18:28;;;;;;;2.10;2.00;;;18.70;42.20;;;;;;5070970;22;20210;-69
2022/04/17 02:20:55;;;;;;;2.10;2.00;;;18.60;42.30;;;;;;5035866;28;20210;-71
2022/04/17 02:23:22;;;;;;;2.15;1.95;;;18.60;42.30;;;;;;5035390;28;20270;-72
2022/04/17 02:25:49;;;;;;;2.28;2.08;;;18.60;42.70;;;;;;5035660;28;20203;-71
2022/04/17 02:28:17;;;;;;;2.15;1.95;;;18.50;42.10;;;;;;5051804;28;20665;-71
2022/04/17 02:30:44;;;;;;;2.33;2.13;;;18.60;42.10;;;;;;5035470;28;20203;-71
2022/04/17 02:33:11;;;;;;;2.33;2.15;;;18.50;42.00;;;;;;5036776;28;20660;-71
2022/04/17 02:35:38;;;;;;;2.47;2.30;;;18.50;42.30;;;;;;5035866;28;20576;-72
2022/04/17 02:38:05;;;;;;;2.00;1.90;;;18.50;42.20;;;;;;5035873;28;20625;-72
2022/04/17 02:40:32;;;;;;;2.22;2.03;;;18.50;42.20;;;;;;5035838;28;20234;-71
2022/04/17 02:43:00;;;;;;;2.28;2.08;;;18.50;42.30;;;;;;5035912;28;20227;-71
2022/04/17 02:45:29;;;;;;;2.40;2.20;;;18.50;42.40;;;;;;5053127;28;20326;-71
2022/04/17 02:47:56;;;;;;;2.00;1.90;;;18.50;42.30;;;;;;5034914;28;20206;-71
2022/04/17 02:50:23;;;;;;;2.20;2.00;;;18.50;42.40;;;;;;5051942;28;20203;-71
2022/04/17 02:52:50;;;;;;;2.10;2.00;;;18.40;42.30;;;;;;5052904;28;20245;-71
2022/04/17 02:55:17;;;;;;;2.22;2.03;;;18.40;42.30;;;;;;5052170;28;20273;-71
2022/04/17 02:57:45;;;;;;;2.40;2.20;;;18.40;42.20;;;;;;5034905;28;20198;-71
2022/04/17 03:00:12;;;;;;;2.25;2.10;;;18.40;42.30;;;;;;5034771;28;20211;-71
2022/04/17 03:05:37;;;;;;;2.28;2.17;;;18.40;42.40;;;;;;4974970;28;20225;-71
2022/04/17 03:08:05;;;;;;;2.50;2.30;;;18.40;42.30;;;;;;5020312;28;20561;-71
2022/04/17 03:10:32;;;;;;;2.10;2.00;;;18.30;42.20;;;;;;5034995;28;20187;-71
2022/04/17 03:12:59;;;;;;;2.20;2.10;;;18.30;42.20;;;;;;5052782;28;20223;-71
2022/04/17 03:15:27;;;;;;;2.10;2.00;;;18.30;42.20;;;;;;5055160;28;20222;-71
2022/04/17 03:17:55;;;;;;;2.28;2.10;;;18.30;42.10;;;;;;5038127;28;20575;-71
2022/04/17 03:20:22;;;;;;;2.30;2.10;;;18.20;42.20;;;;;;5038419;28;20230;-71
2022/04/17 03:22:49;;;;;;;2.20;2.00;;;18.20;42.30;;;;;;5055213;28;20206;-71
2022/04/17 03:25:16;;;;;;;2.40;2.17;;;18.30;42.10;;;;;;5038109;28;20262;-71
2022/04/17 03:27:46;;;;;;;2.30;2.10;;;18.20;42.20;;;;;;5038178;28;20249;-71
2022/04/17 03:30:14;;;;;;;2.38;2.17;;;18.30;42.40;;;;;;5038438;28;20225;-71
2022/04/17 03:32:42;;;;;;;2.42;2.22;;;18.20;42.30;;;;;;5038015;28;20246;-71
2022/04/17 03:35:11;;;;;;;3.45;2.38;;;18.30;42.30;;;;;;5054598;28;20222;-71
2022/04/17 03:37:38;;;;;;;2.10;2.00;;;18.20;42.10;;;;;;5037851;28;20203;-71
2022/04/17 03:40:06;;;;;;;2.50;2.30;;;18.30;42.20;;;;;;5055746;28;20203;-71
2022/04/17 03:42:35;;;;;;;2.40;2.20;;;18.30;42.00;;;;;;5054509;28;20199;-71
2022/04/17 03:45:03;;;;;;;2.28;2.17;;;18.30;42.20;;;;;;5037759;28;20221;-71
2022/04/17 03:47:31;;;;;;;2.33;2.22;;;18.30;41.80;;;;;;5037684;28;20192;-71
2022/04/17 03:49:58;;;;;;;2.40;2.20;;;18.30;42.20;;;;;;5037722;28;20199;-71
2022/04/17 03:52:27;;;;;;;2.25;2.15;;;18.30;41.90;;;;;;5054239;28;20200;-71
2022/04/17 03:54:54;;;;;;;2.30;2.20;;;18.40;42.10;;;;;;5037748;28;20219;-71
2022/04/17 03:57:21;;;;;;;2.35;2.15;;;18.40;42.10;;;;;;5054351;28;20205;-71
2022/04/17 03:59:48;;;;;;;2.40;2.20;;;18.30;41.80;;;;;;5054211;28;20227;-71
2022/04/17 04:02:15;;;;;;;2.50;2.30;;;18.40;42.00;;;;;;5055519;28;20191;-71
2022/04/17 04:04:42;;;;;;;2.10;2.00;;;18.40;42.00;;;;;;5037385;28;20219;-71
2022/04/17 04:07:10;;;;;;;2.63;2.10;;;18.40;42.00;;;;;;5054147;28;20743;-71
2022/04/17 04:09:38;;;;;;;2.00;1.90;;;18.40;41.80;;;;;;5037448;28;20286;-71
2022/04/17 04:12:06;;;;;;;2.20;2.08;;;18.40;41.80;;;;;;5037253;28;20273;-71
2022/04/17 04:14:33;;;;;;;2.25;2.15;;;18.40;41.80;;;;;;5037328;28;20211;-71
2022/04/17 04:17:00;;;;;;;2.42;2.22;;;18.40;41.70;;;;;;5037430;28;20195;-71
2022/04/17 04:19:28;;;;;;;2.30;2.15;;;18.40;41.70;;;;;;5037285;28;20227;-71
2022/04/17 04:21:55;;;;;;;2.60;2.25;;;18.40;41.70;;;;;;5037522;28;20711;-71
2022/04/17 04:24:26;;;;;;;2.20;2.00;;;18.40;41.60;;;;;;5036856;28;20225;-71
2022/04/17 04:29:35;;;;;;;3.00;2.47;;;18.50;41.60;;;;;;5053877;28;20668;-71
2022/04/17 04:32:03;;;;;;;2.42;2.13;;;18.50;41.50;;;;;;5037052;28;20222;-71
2022/04/17 04:34:30;;;;;;;2.63;2.42;;;18.50;41.40;;;;;;5037145;28;20265;-71
2022/04/17 04:36:57;;;;;;;2.60;2.40;;;18.50;41.30;;;;;;5054861;28;20194;-71
2022/04/17 04:39:24;;;;;;;2.15;2.05;;;18.50;41.50;;;;;;5037335;28;20215;-71
2022/04/17 04:41:51;;;;;;;2.20;2.10;;;18.60;41.40;;;;;;5053676;28;20660;-71
2022/04/17 04:44:20;;;;;;;2.42;2.22;;;18.60;41.50;;;;;;5053202;28;20247;-71
2022/04/17 04:46:46;;;;;;;2.20;2.10;;;18.60;41.20;;;;;;5036713;28;20576;-71
2022/04/17 04:52:04;;;;;;;2.42;2.22;;;18.60;41.20;;;;;;5021950;28;20195;-71
2022/04/17 04:54:31;;;;;;;2.47;2.28;;;18.70;41.20;;;;;;5036604;28;20239;-71
2022/04/17 04:57:00;;;;;;;2.38;2.17;;;18.70;41.00;;;;;;5054797;28;20282;-71
2022/04/17 04:59:29;;;;;;;2.38;2.17;;;18.70;41.10;;;;;;5054646;28;20783;-71
2022/04/17 05:01:57;;;;;;;2.13;2.03;;;18.70;40.90;;;;;;5054909;28;20183;-71
2022/04/17 05:04:24;;;;;;;2.15;2.05;;;18.80;41.00;;;;;;5036456;28;20219;-71
2022/04/17 05:06:51;;;;;;;2.33;2.15;;;18.80;40.70;;;;;;5036414;28;20550;-71
2022/04/17 05:09:19;;;;;;;2.22;2.03;;;18.90;40.70;;;;;;5036237;28;20233;-71
2022/04/17 05:11:46;;;;;;;2.22;2.03;;;18.90;40.80;;;;;;5053046;28;20195;-71
2022/04/17 05:14:13;;;;;;;2.65;2.00;;;18.90;40.40;;;;;;5036337;28;20239;-71
2022/04/17 05:16:42;;;;;;;2.20;2.05;;;19.00;40.60;;;;;;5054233;28;20728;-71
2022/04/17 05:19:24;;;;;;;2.78;2.50;;;18.90;40.30;;;;;;5037715;28;20207;-71
2022/04/17 05:21:56;;;;;;;2.13;2.03;;;19.00;40.50;;;;;;5054799;28;20175;-71
2022/04/17 05:24:23;;;;;;;2.47;2.33;;;19.00;40.50;;;;;;5052858;28;20220;-71
2022/04/17 05:26:50;;;;;;;2.70;2.10;;;19.00;40.50;;;;;;5054251;28;20202;-71
2022/04/17 05:29:17;;;;;;;2.25;2.10;;;19.10;40.40;;;;;;5054367;28;20184;-71
2022/04/17 05:31:46;;;;;;;2.25;2.05;;;19.10;40.30;;;;;;5036789;28;20266;-71
2022/04/17 05:34:13;;;;;;;2.08;1.90;;;19.20;40.40;;;;;;5036363;28;20306;-71
2022/04/17 05:36:40;;;;;;;2.30;2.10;;;19.30;40.00;;;;;;5036548;28;20645;-71
2022/04/17 05:39:07;;;;;;;2.47;1.98;;;19.30;40.00;;;;;;5037301;28;20195;-71
2022/04/17 05:41:34;;;;;;;2.13;1.98;;;19.40;39.50;;;;;;5036871;28;20249;-71
2022/04/17 05:44:02;;;;;;;2.00;1.90;;;19.50;39.40;;;;;;5054112;28;20212;-71
2022/04/17 05:46:30;;;;;;;2.10;2.00;;;19.60;38.90;;;;;;5036302;28;20742;-71
2022/04/17 05:48:59;;;;;;;2.30;2.20;;;19.90;38.70;;;;;;5036210;28;20228;-71
2022/04/17 05:51:26;;;;;;;2.30;2.10;;;20.10;38.10;;;;;;5038627;28;20661;-71
2022/04/17 05:53:53;;;;;;;2.38;1.90;;;20.30;38.10;;;;;;5056203;28;20207;-71
2022/04/17 05:56:20;;;;;;;2.30;2.10;;;20.50;37.80;;;;;;5052753;28;20199;-71
2022/04/17 05:58:47;;;;;;;2.28;2.13;;;20.60;37.20;;;;;;5036420;28;20571;-71
2022/04/17 06:01:14;;;;;;;2.17;1.90;;;20.80;37.10;;;;;;5036157;28;20298;-71
2022/04/17 06:03:41;;;;;;;2.00;1.90;;;21.00;36.60;;;;;;5036052;28;20245;-72
2022/04/17 06:06:10;;;;;;;2.03;1.92;;;21.10;36.50;;;;;;5052530;28;20241;-71
2022/04/17 06:08:37;;;;;;;2.00;1.90;;;21.30;36.50;;;;;;5036200;28;20199;-71
2022/04/17 06:11:04;;;;;;;1.90;1.80;;;21.40;36.20;;;;;;5035997;28;20286;-71
2022/04/17 06:13:31;;;;;;;1.73;1.63;;;21.50;36.00;;;;;;5035513;28;20751;-71
2022/04/17 06:15:58;;;;;;;2.40;2.20;;;21.70;35.80;;;;;;5035765;28;20195;-72
2022/04/17 06:18:25;;;;;;;2.05;1.85;;;21.80;35.70;;;;;;5053470;28;20187;-72
2022/04/17 06:20:52;;;;;;;1.92;1.83;;;22.00;35.70;;;;;;5035584;28;20211;-72
2022/04/17 06:23:21;;;;;;;2.03;1.88;;;22.10;35.60;;;;;;5051991;28;20227;-71
2022/04/17 06:25:48;;;;;;;2.13;2.03;;;22.20;35.30;;;;;;5035586;28;20195;-71
2022/04/17 06:28:15;;;;;;;2.47;2.28;;;22.30;35.20;;;;;;5035275;28;20206;-71
2022/04/17 06:30:43;;;;;;;2.00;1.90;;;22.50;35.00;;;;;;5053388;28;20198;-71
2022/04/17 06:33:10;;;;;;;2.20;2.00;;;22.60;35.10;;;;;;5053291;28;20195;-72
2022/04/17 06:35:37;;;;;;;2.10;1.88;;;22.60;34.70;;;;;;5052839;28;20211;-71
2022/04/17 06:38:05;;;;;;;2.20;2.10;;;22.80;34.60;;;;;;5035197;28;20191;-72
2022/04/17 06:40:36;;;;;;;1.83;1.73;;;22.80;34.40;;;;;;5052893;28;20253;-72
2022/04/17 06:43:05;;;;;;;1.83;1.73;;;23.00;34.30;;;;;;5035359;28;20183;-71
2022/04/17 06:45:34;;;;;;;2.03;1.83;;;23.10;34.30;;;;;;5035096;28;20215;-71
2022/04/17 06:48:11;;;;;;;2.10;2.00;;;23.20;34.20;;;;;;5035349;28;20584;-71
2022/04/17 06:50:38;;;;;;;2.20;1.85;;;23.30;34.00;;;;;;5057130;28;20198;-71
2022/04/17 06:53:05;;;;;;;1.90;1.80;;;23.40;33.70;;;;;;5038929;28;20574;-71
2022/04/17 06:55:33;;;;;;;1.80;1.70;;;23.50;33.80;;;;;;5056687;28;20243;-72
2022/04/17 06:58:00;;;;;;;1.80;1.70;;;23.50;33.60;;;;;;5038854;28;20377;-71
2022/04/17 07:00:27;;;;;;;1.90;1.80;;;23.60;33.60;;;;;;5055354;28;20207;-71
2022/04/17 07:02:55;;;;;;;1.80;1.70;;;23.70;34.00;;;;;;5056441;28;20192;-72
2022/04/17 07:05:21;;;;;;;1.90;1.80;;;23.80;33.70;;;;;;5038423;28;20586;-72
2022/04/17 07:07:57;;;;;;;1.77;1.67;;;23.90;33.40;;;;;;5038396;28;20231;-72
2022/04/17 07:10:24;;;;;;;1.80;1.70;;;24.00;33.50;;;;;;5038478;28;20226;-71
2022/04/17 07:12:53;;;;;;;1.75;1.65;;;24.00;33.30;;;;;;5038687;28;20206;-71
2022/04/17 07:15:20;;;;;;;1.88;1.77;;;24.10;33.20;;;;;;5038700;28;20264;-72
2022/04/17 07:17:48;;;;;;;2.08;1.88;;;24.20;33.10;;;;;;5056673;28;20188;-71
2022/04/17 07:20:16;;;;;;;1.75;1.65;;;24.20;33.00;;;;;;5038319;28;20242;-71
2022/04/17 07:22:43;;;;;;;1.80;1.70;;;24.30;33.10;;;;;;5056519;28;20184;-71
2022/04/17 07:25:11;;;;;;;1.80;1.70;;;24.40;32.90;;;;;;5038035;28;20357;-71
2022/04/17 07:27:39;;;;;;;2.95;1.80;;;24.40;33.50;;;;;;5054783;28;20293;-71
2022/04/17 07:30:11;;;;;;;1.88;1.77;;;24.50;32.60;;;;;;5038805;28;20196;-71
2022/04/17 07:32:39;;;;;;;1.67;1.58;;;24.60;32.50;;;;;;5056391;28;20669;-71
2022/04/17 07:35:06;;;;;;;1.70;1.60;;;24.70;32.30;;;;;;5037998;28;20226;-71
2022/04/17 07:37:35;;;;;;;1.55;1.45;;;24.70;32.20;;;;;;5055161;28;20561;-71
2022/04/17 07:40:02;;;;;;;1.63;1.52;;;24.80;32.10;;;;;;5037960;28;20679;-70
2022/04/17 07:42:29;;;;;;;1.88;1.77;;;24.90;32.20;;;;;;5038094;28;20290;-71
2022/04/17 07:44:56;;;;;;;1.58;1.48;;;24.90;32.00;;;;;;5038345;28;20215;-71
2022/04/17 07:47:25;;;;;;;2.33;1.60;;;25.00;32.00;;;;;;5055891;28;20188;-71
2022/04/17 07:49:52;;;;;;;1.70;1.60;;;25.00;31.70;;;;;;5037828;28;20195;-71
2022/04/17 07:52:19;;;;;;;1.60;1.50;;;25.10;31.70;;;;;;5038167;28;20195;-71
2022/04/17 07:54:47;;;;;;;1.70;1.60;;;25.20;31.50;;;;;;5038136;28;20226;-71
2022/04/17 07:57:14;;;;;;;1.75;1.65;;;25.20;31.40;;;;;;5056744;28;20195;-71
2022/04/17 07:59:42;;;;;;;1.70;1.60;;;25.30;31.40;;;;;;5037709;28;20207;-71
2022/04/17 08:02:22;;;;;;;1.40;1.30;;;25.40;31.40;;;;;;5038072;28;20215;-71
2022/04/17 08:04:51;;;;;;;1.67;1.58;;;25.50;31.20;;;;;;5037794;28;20223;-71
2022/04/17 08:07:19;;;;;;;1.70;1.60;;;25.50;31.10;;;;;;5037943;28;20644;-71
2022/04/17 08:09:46;;;;;;;1.60;1.50;;;25.60;31.10;;;;;;5054354;28;20199;-71
2022/04/17 08:12:13;;;;;;;1.70;1.60;;;25.60;31.10;;;;;;5038136;28;20199;-71
2022/04/17 08:14:40;;;;;;;1.70;1.60;;;25.70;30.90;;;;;;5053947;28;20219;-71
2022/04/17 08:17:08;;;;;;;1.60;1.50;;;25.70;30.80;;;;;;5055144;28;20200;-71
2022/04/17 08:19:35;;;;;;;1.50;1.40;;;25.80;30.60;;;;;;5053729;28;20207;-71
2022/04/17 08:22:05;;;;;;;1.70;1.60;;;25.90;30.60;;;;;;5037200;28;20207;-71
2022/04/17 08:24:32;;;;;;;1.60;1.50;;;25.90;30.50;;;;;;5037048;28;20273;-71
2022/04/17 08:26:59;;;;;;;4.63;1.60;;;25.90;30.20;;;;;;5162249;22;20219;-70
2022/04/17 08:29:26;;;;;;;1.90;1.80;;;26.00;30.50;;;;;;5055560;28;20223;-70
2022/04/17 08:31:53;;;;;;;1.98;1.60;;;26.10;31.10;;;;;;5055298;28;20202;-70
2022/04/17 08:34:21;;;;;;;1.50;1.40;;;26.10;30.60;;;;;;5055006;28;20626;-70
2022/04/17 08:36:48;;;;;;;2.30;2.10;;;26.20;30.60;;;;;;5037068;28;20397;-71
2022/04/17 08:39:17;;;;;;;2.03;1.92;;;26.20;30.80;;;;;;5055034;28;20187;-70
2022/04/17 08:41:45;;;;;;;2.00;1.90;;;26.30;30.90;;;;;;5037048;28;20595;-70
2022/04/17 08:44:12;;;;;;;1.88;1.77;;;26.30;30.90;;;;;;5055343;28;20205;-70
2022/04/17 08:46:39;;;;;;;2.03;1.60;;;26.30;30.90;;;;;;5054993;28;20211;-71
2022/04/17 08:51:35;;;;;;;2.38;1.70;;;26.40;31.20;;;;;;5162302;22;20203;-70
2022/04/17 08:54:03;;;;;;;1.85;1.75;;;26.50;31.50;;;;;;5017136;28;20371;-70
2022/04/17 08:56:31;;;;;;;1.75;1.65;;;26.50;31.70;;;;;;5010985;28;20462;-70
2022/04/17 08:59:00;;;;;;;2.08;1.88;;;26.50;32.00;;;;;;4997421;28;20207;-70
2022/04/17 09:01:27;;;;;;;83.47;40.72;;;26.50;31.80;;;;;;5014867;28;20255;-69
2022/04/17 09:03:55;;;;;;;140.38;83.80;;;26.50;32.20;;;;;;4997563;28;20196;-70
2022/04/17 09:06:22;;;;;;;35.28;20.65;;;26.60;32.10;;;;;;5015197;28;20687;-70
2022/04/17 09:09:03;;;;;;;79.95;41.22;;;26.60;31.60;;;;;;4997470;28;20205;-70
2022/04/17 09:11:31;;;;;;;75.00;42.15;;;26.60;32.40;;;;;;5014966;28;20189;-70
2022/04/17 09:14:01;;;;;;;58.25;37.10;;;26.70;33.10;;;;;;5013490;28;20197;-70
2022/04/17 09:16:29;;;;;;;56.83;32.40;;;26.70;33.30;;;;;;5014861;28;20208;-70
2022/04/17 09:18:57;;;;;;;47.63;28.27;;;26.70;33.00;;;;;;4997117;28;20266;-70
2022/04/17 09:21:32;;;;;;;37.20;22.20;;;26.70;32.90;;;;;;5014436;28;20262;-70
2022/04/17 09:24:19;;;;;;;36.63;20.73;;;26.70;32.30;;;;;;5013446;28;20555;-70
2022/04/17 09:26:55;;;;;;;31.80;18.33;;;26.80;32.30;;;;;;4997416;28;20220;-70
2022/04/17 09:29:24;;;;;;;27.15;17.00;;;26.80;31.70;;;;;;4997040;28;20733;-70
2022/04/17 09:31:57;;;;;;;26.85;15.63;;;26.80;32.90;;;;;;4997174;28;20201;-70
2022/04/17 09:34:25;;;;;;;23.55;14.68;;;26.80;32.30;;;;;;4997168;28;20239;-70
2022/04/17 09:36:58;;;;;;;22.77;13.20;;;26.80;32.20;;;;;;5015159;28;20682;-70
2022/04/17 09:39:32;;;;;;;23.13;12.45;;;26.80;32.30;;;;;;4997253;28;20197;-70
2022/04/17 09:42:01;;;;;;;20.75;11.45;;;26.80;31.50;;;;;;4999447;28;20212;-71
2022/04/17 09:44:40;;;;;;;17.30;10.50;;;26.80;32.30;;;;;;4999289;28;20196;-71
2022/04/17 09:47:09;;;;;;;17.92;10.57;;;26.70;31.90;;;;;;5015665;28;20223;-70
2022/04/17 09:49:58;;;;;;;16.52;10.35;;;26.80;32.00;;;;;;5013702;28;20637;-70
2022/04/17 09:55:10;;;;;;;17.63;9.55;;;26.70;31.40;;;;;;5033315;28;20269;-70
2022/04/17 09:57:39;;;;;;;16.42;8.45;;;26.70;31.00;;;;;;5028713;28;20220;-70
2022/04/17 10:00:11;;;;;;;13.90;7.85;;;26.70;31.50;;;;;;5148057;23;20223;-70
2022/04/17 10:02:38;;;;;;;14.43;7.22;;;26.60;31.50;;;;;;5174474;22;20317;-69
2022/04/17 10:05:06;;;;;;;15.13;7.13;;;26.60;32.20;;;;;;5120977;22;20591;-69
2022/04/17 10:07:33;;;;;;;15.18;7.03;;;26.60;32.30;;;;;;5036084;28;20222;-70
2022/04/17 10:10:00;;;;;;;15.25;7.47;;;26.60;32.20;;;;;;5036212;28;20240;-69
2022/04/17 10:15:14;;;;;;;12.82;6.65;;;26.60;32.30;;;;;;5072295;28;20209;-70
2022/04/17 10:17:46;;;;;;;11.90;6.25;;;26.50;32.90;;;;;;5073600;28;20225;-69
2022/04/17 10:20:14;;;;;;;10.63;6.00;;;26.50;33.10;;;;;;5055989;28;20225;-70
2022/04/17 10:22:42;;;;;;;12.60;6.05;;;26.50;32.90;;;;;;5055704;28;20215;-69
2022/04/17 10:25:10;;;;;;;9.88;5.35;;;26.50;32.90;;;;;;5060013;28;20262;-69
2022/04/17 10:27:40;;;;;;;10.30;5.32;;;26.50;32.70;;;;;;5060441;28;20245;-69
2022/04/17 10:30:08;;;;;;;10.10;5.65;;;26.50;32.50;;;;;;5059865;28;20209;-68
2022/04/17 10:33:14;;;;;;;10.45;5.45;;;26.50;32.30;;;;;;5060671;28;20195;-68
2022/04/17 10:35:46;;;;;;;10.82;5.25;;;26.50;32.20;;;;;;5059613;28;20194;-68
2022/04/17 10:38:31;;;;;;;8.43;4.85;;;26.50;32.20;;;;;;5077882;28;20206;-69
2022/04/17 10:40:59;;;;;;;10.73;5.15;;;26.60;32.20;;;;;;5060292;28;20563;-68
2022/04/17 10:43:33;;;;;;;9.68;5.05;;;26.50;32.10;;;;;;5059050;28;20199;-68
2022/04/17 10:46:13;;;;;;;8.77;4.68;;;26.60;31.50;;;;;;5078242;28;20197;-68
2022/04/17 10:48:46;;;;;;;8.40;4.30;;;26.60;31.50;;;;;;5060499;28;20293;-69
2022/04/17 10:51:15;;;;;;;8.05;4.30;;;26.70;31.10;;;;;;5060641;28;20194;-69
2022/04/17 10:53:50;;;;;;;7.80;3.95;;;26.60;31.10;;;;;;5061069;28;20252;-69
2022/04/17 10:56:17;;;;;;;8.05;3.83;;;26.70;31.20;;;;;;5078470;28;20221;-69
2022/04/17 10:58:51;;;;;;;6.32;3.72;;;26.70;31.10;;;;;;5060310;28;20194;-70
2022/04/17 11:01:22;;;;;;;6.13;3.60;;;26.70;30.80;;;;;;5060360;28;20238;-71
2022/04/17 11:03:52;;;;;;;6.38;4.10;;;26.60;30.90;;;;;;5078753;28;20668;-71
2022/04/17 11:06:30;;;;;;;6.47;3.60;;;26.50;31.10;;;;;;5060602;28;20712;-71
2022/04/17 11:09:04;;;;;;;6.00;3.50;;;26.40;31.20;;;;;;5060506;28;20202;-71
2022/04/17 11:11:36;;;;;;;5.70;3.45;;;26.30;31.40;;;;;;5060399;28;20194;-70
2022/04/17 11:14:10;;;;;;;5.88;3.53;;;26.20;31.50;;;;;;5059847;28;20214;-71
2022/04/17 11:16:42;;;;;;;4.68;3.25;;;26.10;31.80;;;;;;5076830;28;20244;-71
2022/04/17 11:19:12;;;;;;;6.82;3.33;;;26.00;31.70;;;;;;5077861;28;20176;-71
2022/04/17 11:21:41;;;;;;;6.00;3.47;;;25.90;31.70;;;;;;5059601;28;20229;-71
2022/04/17 11:24:08;;;;;;;6.00;3.40;;;25.80;31.80;;;;;;5077902;28;20198;-71
2022/04/17 11:27:07;;;;;;;5.85;3.25;;;25.70;32.10;;;;;;5059400;28;20222;-71
2022/04/17 11:29:34;;;;;;;5.05;3.33;;;25.60;32.00;;;;;;5058443;28;20252;-69
2022/04/17 11:32:02;;;;;;;4.72;3.30;;;25.60;32.10;;;;;;5058318;28;20281;-68
2022/04/17 11:34:42;;;;;;;4.10;3.08;;;25.50;32.10;;;;;;5057916;28;20343;-68
2022/04/17 11:37:09;;;;;;;6.30;3.30;;;25.50;32.30;;;;;;5058092;28;20222;-68
2022/04/17 11:39:38;;;;;;;4.75;2.97;;;25.50;32.30;;;;;;5058891;28;20199;-69
2022/04/17 11:42:06;;;;;;;4.68;2.92;;;25.50;32.40;;;;;;5230969;22;20227;-69
2022/04/17 11:44:33;;;;;;;4.68;2.72;;;25.40;28.80;;;;;;5038851;28;20274;-68
2022/04/17 11:47:00;;;;;;;3.35;2.47;;;25.20;28.70;;;;;;5037684;28;20227;-69
2022/04/17 11:49:32;;;;;;;2.50;2.22;;;25.20;29.20;;;;;;5054464;28;20219;-69
2022/04/17 11:52:11;;;;;;;3.95;2.35;;;25.10;29.40;;;;;;5054565;28;20195;-69
2022/04/17 11:54:39;;;;;;;2.85;2.25;;;25.10;29.60;;;;;;5055830;28;20637;-69
2022/04/17 11:57:06;;;;;;;2.53;2.28;;;25.10;29.80;;;;;;5054330;28;20223;-69
2022/04/17 11:59:44;;;;;;;2.67;2.35;;;25.10;29.70;;;;;;5054398;28;20192;-69
2022/04/17 12:02:14;;;;;;;4.55;2.20;;;25.10;30.00;;;;;;5054481;28;20273;-69
2022/04/17 12:04:41;;;;;;;4.13;2.40;;;25.20;30.10;;;;;;5037754;28;20195;-69
2022/04/17 12:07:08;;;;;;;2.45;2.17;;;25.20;30.20;;;;;;5054143;28;20212;-69
2022/04/17 12:09:38;;;;;;;2.88;2.10;;;25.20;30.90;;;;;;5054203;28;20583;-69
2022/04/17 12:12:10;;;;;;;3.80;2.38;;;25.20;30.10;;;;;;5250160;22;20604;-68
2022/04/17 12:17:13;;;;;;;3.38;2.20;;;25.20;30.30;;;;;;5054409;28;20261;-71
2022/04/17 12:19:40;;;;;;;2.53;2.13;;;25.20;30.70;;;;;;5055237;28;20199;-70
2022/04/17 12:22:12;;;;;;;3.13;2.15;;;25.20;31.00;;;;;;5037162;28;20243;-70
2022/04/17 12:24:43;;;;;;;3.50;2.13;;;25.10;31.00;;;;;;5037391;28;20191;-71
2022/04/17 12:27:10;;;;;;;3.22;1.90;;;25.10;31.20;;;;;;5037957;28;20220;-70
2022/04/17 12:29:38;;;;;;;3.13;2.22;;;25.10;30.70;;;;;;5037191;28;20581;-69
2022/04/17 12:32:12;;;;;;;2.50;2.15;;;25.00;30.70;;;;;;5037062;28;20196;-69
2022/04/17 12:34:39;;;;;;;3.33;2.30;;;25.00;30.90;;;;;;5055639;28;20180;-70
2022/04/17 12:37:19;;;;;;;2.15;1.95;;;24.90;31.20;;;;;;5037495;28;20222;-69
2022/04/17 12:39:48;;;;;;;2.78;1.95;;;24.90;31.20;;;;;;5038566;28;20180;-68
2022/04/17 12:42:18;;;;;;;2.13;1.92;;;24.80;31.50;;;;;;5037417;28;20237;-69
2022/04/17 12:44:48;;;;;;;2.53;2.13;;;24.80;31.10;;;;;;5111827;22;20204;-66
2022/04/17 12:50:03;;;;;;;2.72;2.00;;;24.70;30.00;;;;;;5345499;22;20226;-68
2022/04/17 12:52:30;;;;;;;2.95;2.00;;;24.70;30.10;;;;;;5038400;28;20620;-69
2022/04/17 12:54:59;;;;;;;2.13;1.90;;;24.60;30.70;;;;;;5055045;28;20625;-69
2022/04/17 12:57:26;;;;;;;2.92;1.80;;;24.60;30.90;;;;;;5054847;28;20693;-68
2022/04/17 12:59:54;;;;;;;3.03;2.00;;;24.50;30.90;;;;;;5036827;28;20203;-68
2022/04/17 13:02:23;;;;;;;2.65;2.10;;;24.50;31.00;;;;;;5036847;28;20713;-69
2022/04/17 13:04:53;;;;;;;5.85;2.28;;;24.50;31.20;;;;;;5054622;28;20274;-68
2022/04/17 13:07:20;;;;;;;2.20;1.73;;;24.50;31.40;;;;;;5053579;28;20211;-69
2022/04/17 13:09:51;;;;;;;1.95;1.75;;;24.40;31.10;;;;;;5036828;28;20202;-68
2022/04/17 13:12:33;;;;;;;2.70;1.95;;;24.40;30.70;;;;;;5036921;28;20195;-68
2022/04/17 13:15:00;;;;;;;3.25;1.85;;;24.40;30.50;;;;;;5036778;28;20223;-68
2022/04/17 13:17:27;;;;;;;2.50;1.90;;;24.30;30.70;;;;;;5054669;28;20207;-68
2022/04/17 13:19:54;;;;;;;2.45;1.80;;;24.40;30.00;;;;;;5036652;28;20611;-68